createdAt,value
2022-10-24T00:00:51.933Z,5.97
2022-10-24T00:03:18.437Z,5.20
2022-10-24T00:05:45.396Z,6.05
2022-10-24T00:08:11.933Z,5.53
2022-10-24T00:10:42.496Z,5.35
2022-10-24T00:13:08.942Z,3.78
2022-10-24T00:15:35.391Z,4.00
2022-10-24T00:18:02.089Z,5.03
2022-10-24T00:20:28.535Z,4.85
2022-10-24T00:22:55.080Z,4.50
2022-10-24T00:25:21.523Z,3.72
2022-10-24T00:27:47.992Z,4.70
2022-10-24T00:30:14.456Z,3.30
2022-10-24T00:32:41.090Z,4.15
2022-10-24T00:35:07.969Z,4.35
2022-10-24T00:37:35.271Z,2.67
2022-10-24T00:40:02.382Z,4.05
2022-10-24T00:42:28.892Z,3.75
2022-10-24T00:44:55.686Z,3.50
2022-10-24T00:47:24.681Z,5.07
2022-10-24T00:50:12.302Z,3.45
2022-10-24T00:52:45.926Z,4.63
2022-10-24T00:55:12.845Z,4.20
2022-10-24T00:57:48.190Z,3.38
2022-10-24T01:00:17.462Z,5.82
2022-10-24T01:02:44.183Z,4.93
2022-10-24T01:05:10.790Z,3.92
2022-10-24T01:08:14.838Z,2.63
2022-10-24T01:10:57.760Z,3.15
2022-10-24T01:14:06.193Z,2.97
2022-10-24T01:16:49.106Z,2.72
2022-10-24T01:19:26.704Z,3.65
2022-10-24T01:21:55.067Z,3.10
2022-10-24T01:24:59.193Z,3.88
2022-10-24T01:27:51.365Z,2.73
2022-10-24T01:30:17.887Z,3.03
2022-10-24T01:33:04.586Z,2.30
2022-10-24T01:35:58.017Z,2.42
2022-10-24T01:38:26.664Z,3.17
2022-10-24T01:40:57.818Z,5.55
2022-10-24T01:43:34.670Z,2.38
2022-10-24T01:46:08.041Z,3.03
2022-10-24T01:48:37.690Z,2.40
2022-10-24T01:51:04.265Z,2.92
2022-10-24T01:53:30.751Z,2.38
2022-10-24T01:55:57.280Z,4.72
2022-10-24T01:58:23.766Z,3.30
2022-10-24T02:00:51.335Z,3.75
2022-10-24T02:03:34.519Z,2.17
2022-10-24T02:06:04.250Z,1.83
2022-10-24T02:08:33.992Z,2.15
2022-10-24T02:11:02.078Z,2.10
2022-10-24T02:14:00.031Z,3.13
2022-10-24T02:16:26.500Z,2.70
2022-10-24T02:18:53.616Z,2.25
2022-10-24T02:21:50.960Z,2.45
2022-10-24T02:24:23.630Z,2.20
2022-10-24T02:27:10.438Z,1.83
2022-10-24T02:29:41.335Z,3.03
2022-10-24T02:32:09.746Z,2.47
2022-10-24T02:34:36.549Z,2.35
2022-10-24T02:37:03.134Z,2.92
2022-10-24T02:39:29.844Z,1.95
2022-10-24T02:41:56.302Z,6.90
2022-10-24T02:44:22.789Z,15.00
2022-10-24T02:46:49.295Z,13.02
2022-10-24T02:49:19.598Z,12.95
2022-10-24T02:51:46.241Z,17.95
2022-10-24T02:54:12.729Z,18.90
2022-10-24T02:56:41.407Z,15.73
2022-10-24T03:01:39.333Z,11.70
2022-10-24T03:04:06.211Z,16.48
2022-10-24T03:06:32.957Z,15.52
2022-10-24T03:08:59.847Z,17.17
2022-10-24T03:11:26.327Z,14.50
2022-10-24T03:13:52.771Z,17.13
2022-10-24T03:16:19.253Z,18.63
2022-10-24T03:18:45.702Z,10.20
2022-10-24T03:21:12.147Z,15.48
2022-10-24T03:23:39.748Z,15.18
2022-10-24T03:26:06.343Z,12.02
2022-10-24T03:28:32.793Z,11.35
2022-10-24T03:30:59.237Z,13.75
2022-10-24T03:33:25.723Z,9.95
2022-10-24T03:35:53.499Z,13.93
2022-10-24T03:38:20.539Z,8.57
2022-10-24T03:40:46.990Z,12.02
2022-10-24T03:43:13.477Z,11.45
2022-10-24T03:45:40.216Z,12.35
2022-10-24T03:48:06.800Z,13.25
2022-10-24T03:50:33.421Z,10.48
2022-10-24T03:53:00.102Z,11.80
2022-10-24T03:55:27.057Z,9.38
2022-10-24T03:57:53.878Z,10.48
2022-10-24T04:00:20.732Z,10.00
2022-10-24T04:02:47.589Z,9.68
2022-10-24T04:05:14.033Z,9.38
2022-10-24T04:07:40.534Z,9.38
2022-10-24T04:10:07.213Z,9.10
2022-10-24T04:12:34.206Z,10.10
2022-10-24T04:15:03.992Z,10.63
2022-10-24T04:17:32.278Z,8.10
2022-10-24T04:19:59.065Z,7.82
2022-10-24T04:22:25.542Z,8.60
2022-10-24T04:24:51.999Z,9.65
2022-10-24T04:27:18.499Z,7.45
2022-10-24T04:29:44.955Z,7.82
2022-10-24T04:32:11.722Z,8.52
2022-10-24T04:34:38.216Z,8.65
2022-10-24T04:37:04.674Z,7.47
2022-10-24T04:39:31.109Z,8.50
2022-10-24T04:41:57.579Z,7.43
2022-10-24T04:44:24.266Z,9.30
2022-10-24T04:46:51.564Z,6.70
2022-10-24T04:49:18.462Z,6.90
2022-10-24T04:51:44.923Z,6.95
2022-10-24T04:54:11.414Z,5.80
2022-10-24T04:56:37.880Z,6.70
2022-10-24T04:59:04.596Z,6.57
2022-10-24T05:01:31.096Z,8.48
2022-10-24T05:03:57.715Z,9.35
2022-10-24T05:06:24.199Z,10.10
2022-10-24T05:08:50.660Z,7.70
2022-10-24T05:11:17.127Z,11.27
2022-10-24T05:13:43.971Z,9.02
2022-10-24T05:16:10.435Z,6.43
2022-10-24T05:18:36.903Z,9.05
2022-10-24T05:21:03.713Z,6.10
2022-10-24T05:23:30.154Z,9.35
2022-10-24T05:25:56.607Z,9.30
2022-10-24T05:28:23.241Z,7.22
2022-10-24T05:30:49.688Z,9.32
2022-10-24T05:33:16.193Z,9.07
2022-10-24T05:35:42.955Z,8.95
2022-10-24T05:38:09.408Z,7.07
2022-10-24T05:40:35.851Z,10.85
2022-10-24T05:43:02.305Z,10.32
2022-10-24T05:45:28.793Z,8.45
2022-10-24T05:47:55.271Z,5.90
2022-10-24T05:50:21.812Z,9.50
2022-10-24T05:52:48.327Z,6.43
2022-10-24T05:55:17.917Z,8.00
2022-10-24T05:57:45.575Z,6.95
2022-10-24T06:00:13.470Z,6.97
2022-10-24T06:02:40.234Z,8.75
2022-10-24T06:05:07.506Z,9.50
2022-10-24T06:07:35.170Z,8.43
2022-10-24T06:10:02.436Z,5.75
2022-10-24T06:12:28.931Z,7.00
2022-10-24T06:14:59.462Z,6.00
2022-10-24T06:17:26.086Z,7.65
2022-10-24T06:19:52.537Z,6.50
2022-10-24T06:22:19.501Z,5.75
2022-10-24T06:24:45.971Z,6.43
2022-10-24T06:27:12.445Z,4.68
2022-10-24T06:29:38.902Z,5.82
2022-10-24T06:32:05.675Z,6.55
2022-10-24T06:34:32.506Z,4.80
2022-10-24T06:36:59.069Z,3.78
2022-10-24T06:39:25.571Z,6.20
2022-10-24T06:41:52.065Z,4.75
2022-10-24T06:44:18.523Z,4.90
2022-10-24T06:46:45.042Z,5.93
2022-10-24T06:49:12.901Z,7.30
2022-10-24T06:51:40.111Z,4.20
2022-10-24T06:54:06.579Z,5.93
2022-10-24T06:56:33.032Z,5.00
2022-10-24T06:58:59.528Z,5.30
2022-10-24T07:01:26.438Z,6.43
2022-10-24T07:03:56.178Z,6.68
2022-10-24T07:06:27.179Z,8.57
2022-10-24T07:08:54.707Z,4.55
2022-10-24T07:11:21.187Z,9.45
2022-10-24T07:13:47.907Z,10.38
2022-10-24T07:16:14.475Z,7.82
2022-10-24T07:18:41.370Z,8.13
2022-10-24T07:21:09.676Z,6.68
2022-10-24T07:23:36.167Z,6.95
2022-10-24T07:26:04.079Z,7.50
2022-10-24T07:28:30.663Z,10.85
2022-10-24T07:30:57.130Z,7.57
2022-10-24T07:33:23.583Z,9.45
2022-10-24T07:35:50.059Z,11.15
2022-10-24T07:38:18.607Z,7.00
2022-10-24T07:40:45.482Z,7.28
2022-10-24T07:43:12.366Z,7.30
2022-10-24T07:45:39.275Z,11.02
2022-10-24T07:48:09.312Z,6.10
2022-10-24T07:50:40.779Z,6.60
2022-10-24T07:53:07.229Z,9.52
2022-10-24T07:55:33.667Z,14.90
2022-10-24T07:58:00.113Z,9.02
2022-10-24T08:00:26.571Z,10.80
2022-10-24T08:02:53.131Z,12.13
2022-10-24T08:05:22.921Z,9.63
2022-10-24T08:08:00.351Z,7.68
2022-10-24T08:10:37.166Z,7.78
2022-10-24T08:13:03.791Z,8.60
2022-10-24T08:15:30.256Z,9.77
2022-10-24T08:17:56.832Z,16.98
2022-10-24T08:20:26.135Z,13.05
2022-10-24T08:22:53.406Z,14.02
2022-10-24T08:25:21.055Z,7.40
2022-10-24T08:27:47.552Z,9.23
2022-10-24T08:30:14.093Z,8.10
2022-10-24T08:32:40.726Z,6.45
2022-10-24T08:35:07.843Z,10.82
2022-10-24T08:40:13.058Z,11.07
2022-10-24T08:42:39.510Z,7.38
2022-10-24T08:45:12.088Z,11.43
2022-10-24T08:47:42.355Z,8.30
2022-10-24T08:50:13.809Z,10.85
2022-10-24T08:52:54.283Z,6.88
2022-10-24T08:55:44.383Z,7.10
2022-10-24T08:58:18.427Z,11.32
2022-10-24T09:00:46.350Z,10.48
2022-10-24T09:03:51.115Z,11.13
2022-10-24T09:06:23.047Z,9.27
2022-10-24T09:09:00.983Z,8.75
2022-10-24T09:11:39.503Z,10.30
2022-10-24T09:14:12.089Z,9.23
2022-10-24T09:16:38.549Z,9.10
2022-10-24T09:19:04.999Z,8.90
2022-10-24T09:21:31.449Z,10.90
2022-10-24T09:23:57.931Z,12.55
2022-10-24T09:26:27.445Z,8.65
2022-10-24T09:28:55.743Z,12.80
2022-10-24T09:31:24.491Z,10.10
2022-10-24T09:33:52.219Z,6.80
2022-10-24T09:36:19.607Z,10.70
2022-10-24T09:38:46.801Z,11.10
2022-10-24T09:41:27.706Z,10.30
2022-10-24T09:43:56.091Z,10.57
2022-10-24T09:46:23.067Z,8.35
2022-10-24T09:49:02.827Z,7.97
2022-10-24T09:51:34.732Z,13.50
2022-10-24T09:54:07.354Z,14.82
2022-10-24T09:56:38.769Z,11.75
2022-10-24T09:59:17.493Z,11.50
2022-10-24T10:01:45.601Z,7.43
2022-10-24T10:04:17.337Z,6.97
2022-10-24T10:06:50.183Z,7.15
2022-10-24T10:09:34.913Z,8.80
2022-10-24T10:12:03.118Z,7.65
2022-10-24T10:14:29.992Z,8.90
2022-10-24T10:17:05.036Z,7.68
2022-10-24T10:19:35.996Z,12.60
2022-10-24T10:22:21.988Z,10.38
2022-10-24T10:24:48.476Z,9.75
2022-10-24T10:27:30.563Z,5.78
2022-10-24T10:30:12.008Z,10.77
2022-10-24T10:33:09.591Z,9.30
2022-10-24T10:36:00.803Z,7.68
2022-10-24T10:38:53.524Z,7.68
2022-10-24T10:41:48.673Z,9.88
2022-10-24T10:44:53.491Z,7.93
2022-10-24T10:47:35.517Z,6.72
2022-10-24T10:50:02.954Z,11.18
2022-10-24T10:52:48.659Z,6.88
2022-10-24T10:55:20.213Z,9.27
2022-10-24T10:57:49.694Z,10.73
2022-10-24T11:00:30.487Z,8.32
2022-10-24T11:03:00.696Z,6.78
2022-10-24T11:05:27.036Z,4.38
2022-10-24T11:08:17.195Z,6.30
2022-10-24T11:10:54.629Z,5.63
2022-10-24T11:13:23.897Z,3.85
2022-10-24T11:15:52.034Z,5.85
2022-10-24T11:18:22.708Z,9.02
2022-10-24T11:20:54.368Z,7.88
2022-10-24T11:23:38.313Z,9.85
2022-10-24T11:26:24.778Z,5.45
2022-10-24T11:29:14.956Z,8.75
2022-10-24T11:31:48.237Z,5.18
2022-10-24T11:34:19.321Z,4.00
2022-10-24T11:36:52.068Z,8.38
2022-10-24T11:39:22.923Z,5.35
2022-10-24T11:41:56.241Z,4.85
2022-10-24T11:44:43.604Z,2.47
2022-10-24T11:47:25.189Z,8.25
2022-10-24T11:50:12.431Z,9.48
2022-10-24T11:52:42.197Z,4.95
2022-10-24T11:55:17.138Z,7.15
2022-10-24T11:57:45.325Z,4.18
2022-10-24T12:00:21.047Z,5.03
2022-10-24T12:03:14.867Z,6.28
2022-10-24T12:05:47.584Z,5.47
2022-10-24T12:08:31.082Z,5.63
2022-10-24T12:11:15.776Z,5.07
2022-10-24T12:17:22.415Z,6.72
2022-10-24T12:19:48.867Z,5.05
2022-10-24T12:22:23.872Z,4.30
2022-10-24T12:24:50.587Z,2.47
2022-10-24T12:27:32.855Z,5.78
2022-10-24T12:30:24.075Z,7.38
2022-10-24T12:33:26.459Z,2.97
2022-10-24T12:35:56.341Z,1.70
2022-10-24T12:38:28.763Z,3.85
2022-10-24T12:40:59.346Z,3.58
2022-10-24T12:43:31.476Z,4.78
2022-10-24T12:46:01.550Z,5.53
2022-10-24T12:48:32.972Z,8.32
2022-10-24T12:51:00.428Z,4.03
2022-10-24T12:53:38.028Z,7.43
2022-10-24T12:56:10.024Z,6.78
2022-10-24T12:58:37.666Z,6.07
2022-10-24T13:01:29.745Z,5.15
2022-10-24T13:04:25.506Z,4.75
2022-10-24T13:07:22.473Z,5.72
2022-10-24T13:10:03.550Z,5.93
2022-10-24T13:12:45.219Z,6.50
2022-10-24T13:15:27.054Z,6.38
2022-10-24T13:18:14.632Z,2.33
2022-10-24T13:20:43.369Z,3.50
2022-10-24T13:23:16.222Z,5.53
2022-10-24T13:25:42.850Z,7.25
2022-10-24T13:28:24.144Z,4.93
2022-10-24T13:30:59.730Z,5.10
2022-10-24T13:33:29.262Z,5.45
2022-10-24T13:35:57.325Z,3.50
2022-10-24T13:38:23.802Z,6.55
2022-10-24T13:40:50.257Z,6.22
2022-10-24T13:43:19.947Z,5.57
2022-10-24T13:45:46.317Z,4.70
2022-10-24T13:48:22.778Z,5.60
2022-10-24T13:51:18.175Z,5.05
2022-10-24T13:53:55.028Z,4.45
2022-10-24T13:56:21.857Z,8.65
2022-10-24T13:58:49.011Z,5.03
2022-10-24T14:01:27.346Z,3.22
2022-10-24T14:03:54.531Z,8.98
2022-10-24T14:06:25.556Z,2.78
2022-10-24T14:09:03.902Z,6.40
2022-10-24T14:11:33.444Z,9.35
2022-10-24T14:14:04.073Z,5.47
2022-10-24T14:16:34.489Z,13.07
2022-10-24T14:19:28.447Z,6.75
2022-10-24T14:21:56.147Z,7.00
2022-10-24T14:24:22.725Z,2.83
2022-10-24T14:26:51.481Z,17.60
2022-10-24T14:29:23.885Z,4.82
2022-10-24T14:31:59.093Z,6.43
2022-10-24T14:34:25.582Z,7.10
2022-10-24T14:36:52.039Z,8.60
2022-10-24T14:39:23.725Z,3.90
2022-10-24T14:41:51.355Z,7.28
2022-10-24T14:44:18.514Z,5.63
2022-10-24T14:46:46.033Z,6.10
2022-10-24T14:49:27.672Z,5.97
2022-10-24T14:51:58.884Z,9.25
2022-10-24T14:54:27.362Z,4.35
2022-10-24T14:56:54.427Z,5.18
2022-10-24T14:59:26.071Z,9.30
2022-10-24T15:02:00.773Z,9.02
2022-10-24T15:04:38.940Z,5.10
2022-10-24T15:07:24.560Z,6.53
2022-10-24T15:09:55.960Z,7.30
2022-10-24T15:12:33.731Z,9.45
2022-10-24T15:15:23.025Z,3.03
2022-10-24T15:17:50.969Z,6.55
2022-10-24T15:20:22.662Z,4.63
2022-10-24T15:22:50.176Z,6.43
2022-10-24T15:25:22.523Z,5.68
2022-10-24T15:27:49.179Z,7.03
2022-10-24T15:30:21.111Z,6.78
2022-10-24T15:32:48.182Z,5.30
2022-10-24T15:35:14.753Z,7.88
2022-10-24T15:37:41.206Z,5.70
2022-10-24T15:40:19.154Z,4.40
2022-10-24T15:42:46.065Z,4.85
2022-10-24T15:45:13.965Z,9.25
2022-10-24T15:47:40.418Z,6.85
2022-10-24T15:50:07.396Z,8.45
2022-10-24T15:52:33.843Z,5.05
2022-10-24T15:55:00.450Z,4.53
2022-10-24T15:57:26.923Z,6.28
2022-10-24T15:59:53.431Z,6.00
2022-10-24T16:02:21.350Z,6.65
2022-10-24T16:04:47.911Z,5.20
2022-10-24T16:07:14.698Z,6.95
2022-10-24T16:09:41.799Z,5.93
2022-10-24T16:12:08.292Z,9.23
2022-10-24T16:14:35.268Z,5.93
2022-10-24T16:17:01.755Z,7.25
2022-10-24T16:19:28.209Z,5.95
2022-10-24T16:21:58.280Z,5.15
2022-10-24T16:24:25.938Z,8.32
2022-10-24T16:26:52.512Z,5.97
2022-10-24T16:29:18.999Z,13.30
2022-10-24T16:31:47.082Z,11.77
2022-10-24T16:34:14.445Z,9.35
2022-10-24T16:36:40.984Z,9.52
2022-10-24T16:39:07.850Z,8.40
2022-10-24T16:41:34.327Z,10.10
2022-10-24T16:44:00.973Z,8.65
2022-10-24T16:46:27.599Z,8.98
2022-10-24T16:48:54.233Z,8.07
2022-10-24T16:51:22.985Z,5.03
2022-10-24T16:53:49.442Z,10.32
2022-10-24T16:56:16.231Z,12.15
2022-10-24T16:58:42.769Z,6.63
2022-10-24T17:01:10.964Z,10.82
2022-10-24T17:03:37.650Z,7.10
2022-10-24T17:06:04.362Z,8.43
2022-10-24T17:08:31.977Z,6.10
2022-10-24T17:10:58.558Z,7.53
2022-10-24T17:13:25.340Z,13.27
2022-10-24T17:15:52.047Z,11.45
2022-10-24T17:18:23.406Z,13.32
2022-10-24T17:20:50.034Z,11.55
2022-10-24T17:23:18.184Z,7.88
2022-10-24T17:25:45.619Z,7.10
2022-10-24T17:28:13.183Z,8.93
2022-10-24T17:30:40.165Z,5.63
2022-10-24T17:33:07.263Z,8.93
2022-10-24T17:35:33.726Z,6.20
2022-10-24T17:38:22.099Z,9.32
2022-10-24T17:40:49.502Z,8.30
2022-10-24T17:43:24.127Z,5.95
2022-10-24T17:45:50.766Z,8.30
2022-10-24T17:48:17.363Z,6.45
2022-10-24T17:50:44.055Z,14.45
2022-10-24T17:53:18.139Z,6.93
2022-10-24T17:55:46.992Z,8.55
2022-10-24T17:58:14.422Z,6.68
2022-10-24T18:00:40.953Z,8.07
2022-10-24T18:03:08.680Z,7.25
2022-10-24T18:05:37.847Z,4.60
2022-10-24T18:08:08.465Z,9.27
2022-10-24T18:10:36.937Z,3.75
2022-10-24T18:13:03.457Z,9.63
2022-10-24T18:15:29.895Z,8.40
2022-10-24T18:17:56.354Z,8.93
2022-10-24T18:20:22.798Z,7.75
2022-10-24T18:22:49.568Z,6.22
2022-10-24T18:25:20.238Z,13.02
2022-10-24T18:27:49.333Z,8.87
2022-10-24T18:30:15.857Z,8.25
2022-10-24T18:32:42.426Z,10.43
2022-10-24T18:35:09.360Z,10.52
2022-10-24T18:37:35.889Z,10.25
2022-10-24T18:40:05.970Z,9.55
2022-10-24T18:42:49.806Z,5.97
2022-10-24T18:45:22.333Z,10.73
2022-10-24T18:47:49.518Z,10.80
2022-10-24T18:50:17.724Z,6.63
2022-10-24T18:53:22.228Z,8.75
2022-10-24T18:55:49.233Z,9.93
2022-10-24T18:58:17.203Z,7.93
2022-10-24T19:00:43.974Z,8.15
2022-10-24T19:03:29.695Z,8.10
2022-10-24T19:06:17.562Z,6.97
2022-10-24T19:08:44.322Z,6.68
2022-10-24T19:11:14.401Z,6.70
2022-10-24T19:13:41.463Z,8.00
2022-10-24T19:16:11.448Z,6.35
2022-10-24T19:18:37.939Z,9.38
2022-10-24T19:21:05.094Z,8.45
2022-10-24T19:23:31.620Z,8.15
2022-10-24T19:25:58.631Z,6.65
2022-10-24T19:28:25.103Z,8.18
2022-10-24T19:30:51.571Z,9.82
2022-10-24T19:33:18.733Z,8.52
2022-10-24T19:35:47.219Z,8.15
2022-10-24T19:38:14.910Z,9.73
2022-10-24T19:40:46.143Z,8.95
2022-10-24T19:43:13.048Z,9.77
2022-10-24T19:45:45.738Z,10.18
2022-10-24T19:48:22.347Z,64.90
2022-10-24T19:50:49.334Z,16.42
2022-10-24T19:53:15.892Z,89.82
2022-10-24T19:55:42.740Z,86.30
2022-10-24T19:58:11.198Z,91.80
2022-10-24T20:00:37.851Z,76.18
2022-10-24T20:03:04.396Z,72.63
2022-10-24T20:05:31.009Z,68.00
2022-10-24T20:07:57.494Z,77.35
2022-10-24T20:10:23.956Z,71.00
2022-10-24T20:12:50.429Z,77.50
2022-10-24T20:15:18.932Z,77.18
2022-10-24T20:17:45.887Z,74.75
2022-10-24T20:20:12.529Z,70.97
2022-10-24T20:22:39.084Z,69.43
2022-10-24T20:25:06.364Z,64.85
2022-10-24T20:27:32.858Z,64.90
2022-10-24T20:29:59.401Z,66.07
2022-10-24T20:32:25.868Z,61.28
2022-10-24T20:34:52.322Z,60.53
2022-10-24T20:37:19.132Z,59.13
2022-10-24T20:39:45.589Z,58.65
2022-10-24T20:42:12.069Z,57.83
2022-10-24T20:44:38.739Z,56.70
2022-10-24T20:47:05.190Z,58.15
2022-10-24T20:49:32.041Z,56.65
2022-10-24T20:51:58.821Z,53.47
2022-10-24T20:54:25.298Z,51.22
2022-10-24T20:56:51.774Z,57.00
2022-10-24T20:59:18.225Z,52.30
2022-10-24T21:01:44.777Z,51.08
2022-10-24T21:04:12.204Z,48.90
2022-10-24T21:06:39.851Z,47.47
2022-10-24T21:09:07.528Z,45.17
2022-10-24T21:11:34.230Z,46.03
2022-10-24T21:14:08.080Z,46.95
2022-10-24T21:16:34.815Z,47.10
2022-10-24T21:19:01.285Z,48.28
2022-10-24T21:21:27.758Z,47.45
2022-10-24T21:24:02.389Z,46.72
2022-10-24T21:26:32.238Z,42.85
2022-10-24T21:29:08.661Z,45.50
2022-10-24T21:31:41.233Z,42.92
2022-10-24T21:34:07.735Z,45.80
2022-10-24T21:36:34.192Z,42.42
2022-10-24T21:39:00.963Z,41.42
2022-10-24T21:41:27.697Z,39.85
2022-10-24T21:43:54.757Z,42.95
2022-10-24T21:46:22.388Z,37.53
2022-10-24T21:48:49.307Z,38.58
2022-10-24T21:51:20.442Z,34.60
2022-10-24T21:53:53.973Z,36.97
2022-10-24T21:56:22.041Z,42.63
2022-10-24T21:58:53.213Z,36.08
2022-10-24T22:01:20.614Z,37.20
2022-10-24T22:03:47.464Z,38.75
2022-10-24T22:06:17.302Z,34.75
2022-10-24T22:08:44.128Z,34.45
2022-10-24T22:11:13.149Z,34.47
2022-10-24T22:13:39.853Z,35.35
2022-10-24T22:16:07.029Z,30.80
2022-10-24T22:18:33.599Z,35.92
2022-10-24T22:21:00.107Z,29.85
2022-10-24T22:23:26.577Z,26.48
2022-10-24T22:25:53.077Z,21.15
2022-10-24T22:28:19.565Z,17.77
2022-10-24T22:30:46.318Z,20.73
2022-10-24T22:33:18.001Z,18.98
2022-10-24T22:35:46.397Z,18.00
2022-10-24T22:38:13.036Z,16.23
2022-10-24T22:40:39.841Z,16.67
2022-10-24T22:43:06.503Z,20.98
2022-10-24T22:45:33.312Z,20.13
2022-10-24T22:48:08.472Z,21.00
2022-10-24T22:50:38.471Z,18.90
2022-10-24T22:53:05.536Z,17.90
2022-10-24T22:55:34.206Z,17.83
2022-10-24T22:58:00.989Z,17.70
2022-10-24T23:00:27.647Z,18.20
2022-10-24T23:02:59.551Z,19.08
2022-10-24T23:05:30.515Z,16.73
2022-10-24T23:08:08.232Z,16.80
2022-10-24T23:10:36.391Z,21.77
2022-10-24T23:13:03.130Z,17.50
2022-10-24T23:15:29.797Z,16.27
2022-10-24T23:17:56.434Z,18.25
2022-10-24T23:20:36.450Z,17.50
2022-10-24T23:23:16.752Z,17.73
2022-10-24T23:25:45.141Z,14.68
2022-10-24T23:28:13.744Z,13.77
2022-10-24T23:30:40.371Z,23.38
2022-10-24T23:33:09.719Z,15.60
2022-10-24T23:35:36.174Z,18.05
2022-10-24T23:38:02.927Z,14.27
2022-10-24T23:40:29.250Z,13.20
2022-10-24T23:42:55.962Z,13.85
2022-10-24T23:45:25.109Z,14.73
2022-10-24T23:48:22.355Z,14.15
2022-10-24T23:51:30.875Z,15.27
2022-10-24T23:53:57.570Z,13.82
2022-10-24T23:56:25.815Z,13.40
2022-10-24T23:58:52.314Z,13.55
